Time;durP1;ratioP1;P1;durP2;ratioP2;P2;SDS_P1;SDS_P2;PMS_P1;PMS_P2;Temp;Humidity;BMP_temperature;BMP_pressure;BME280_temperature;BME280_humidity;BME280_pressure;Samples;Min_cycle;Max_cycle;Signal;HPM_P1;HPM_P2
2022/05/18 00:00:48;;;;;;;9.73;8.05;;;14.80;95.80;;;;;;4989562;28;20171;-83
2022/05/18 00:03:17;;;;;;;9.10;7.25;;;14.80;95.80;;;;;;4989297;28;20111;-84
2022/05/18 00:05:44;;;;;;;11.43;8.50;;;14.80;95.90;;;;;;5009097;28;20088;-84
2022/05/18 00:08:10;;;;;;;9.10;7.55;;;14.80;95.90;;;;;;4993865;28;20128;-84
2022/05/18 00:10:37;;;;;;;10.90;8.25;;;14.70;96.00;;;;;;5010279;28;20037;-84
2022/05/18 00:13:04;;;;;;;11.90;7.90;;;14.70;96.00;;;;;;5005940;28;20026;-84
2022/05/18 00:15:30;;;;;;;10.90;7.97;;;14.70;96.00;;;;;;4998090;28;20023;-83
2022/05/18 00:17:57;;;;;;;9.98;8.13;;;14.70;96.10;;;;;;5006527;28;20038;-83
2022/05/18 00:20:23;;;;;;;10.73;8.38;;;14.70;96.20;;;;;;4994534;28;20034;-83
2022/05/18 00:22:58;;;;;;;12.98;8.57;;;14.70;96.20;;;;;;5006510;28;20548;-83
2022/05/18 00:25:41;;;;;;;10.82;8.23;;;14.60;96.20;;;;;;5000215;28;20117;-84
2022/05/18 00:28:08;;;;;;;10.85;8.43;;;14.60;96.30;;;;;;5008304;28;20030;-84
2022/05/18 00:30:35;;;;;;;11.50;8.63;;;14.60;96.30;;;;;;4991647;28;20061;-84
2022/05/18 00:33:04;;;;;;;13.18;8.90;;;14.60;96.30;;;;;;4992943;28;20030;-83
2022/05/18 00:35:31;;;;;;;12.15;9.40;;;14.60;96.40;;;;;;4992553;28;20108;-84
2022/05/18 00:37:57;;;;;;;13.77;9.85;;;14.60;96.60;;;;;;5007567;28;20041;-84
2022/05/18 00:40:22;;;;;;;13.32;9.73;;;14.60;96.60;;;;;;4992135;28;20021;-83
2022/05/18 00:42:48;;;;;;;10.95;9.18;;;14.50;96.60;;;;;;5006344;28;20049;-83
2022/05/18 00:45:15;;;;;;;13.60;8.98;;;14.50;96.70;;;;;;5004761;28;20030;-83
2022/05/18 00:47:40;;;;;;;13.65;9.93;;;14.50;96.70;;;;;;5000733;28;20161;-84
2022/05/18 00:50:25;;;;;;;14.55;10.32;;;14.60;96.90;;;;;;5006282;28;20112;-84
2022/05/18 00:53:20;;;;;;;13.30;11.00;;;14.50;97.00;;;;;;5020101;28;20042;-83
2022/05/18 00:55:53;;;;;;;16.83;10.98;;;14.50;96.90;;;;;;5008567;28;20038;-84
2022/05/18 00:58:24;;;;;;;15.68;10.48;;;14.50;97.00;;;;;;5006709;28;20029;-84
2022/05/18 01:00:51;;;;;;;14.70;11.30;;;14.50;97.00;;;;;;5004123;28;20478;-84
2022/05/18 01:03:23;;;;;;;15.05;11.02;;;14.50;97.10;;;;;;4990492;28;20277;-84
2022/05/18 01:05:54;;;;;;;14.52;10.15;;;14.50;97.10;;;;;;5021080;28;20068;-84
2022/05/18 01:08:27;;;;;;;;;;;14.50;97.10;;;;;;5005147;28;20026;-84
2022/05/18 01:10:52;;;;;;;14.60;10.02;;;14.50;97.10;;;;;;5025968;28;20363;-84
2022/05/18 01:13:18;;;;;;;14.05;10.70;;;14.50;97.10;;;;;;5008560;28;20068;-84
2022/05/18 01:15:43;;;;;;;15.75;10.90;;;14.40;97.00;;;;;;4997023;28;20370;-84
2022/05/18 01:18:12;;;;;;;15.77;11.10;;;14.50;97.20;;;;;;4992571;28;20448;-84
2022/05/18 01:20:38;;;;;;;12.40;10.45;;;14.50;97.20;;;;;;4994553;28;20089;-84
2022/05/18 01:23:18;;;;;;;16.58;11.73;;;14.40;97.20;;;;;;4990359;28;20030;-84
2022/05/18 01:25:44;;;;;;;15.50;11.07;;;14.30;97.20;;;;;;5008224;28;20076;-84
2022/05/18 01:28:10;;;;;;;16.23;11.35;;;14.30;97.20;;;;;;5016345;28;20138;-84
2022/05/18 01:30:38;;;;;;;13.95;11.05;;;14.40;97.30;;;;;;5002882;28;20030;-84
2022/05/18 01:33:07;;;;;;;16.13;11.65;;;14.30;97.30;;;;;;4990534;28;20567;-83
2022/05/18 01:35:34;;;;;;;14.82;10.75;;;14.30;97.30;;;;;;4990362;28;20386;-84
2022/05/18 01:37:59;;;;;;;16.33;10.45;;;14.20;97.30;;;;;;4997115;28;20057;-84
2022/05/18 01:41:02;;;;;;;15.57;11.55;;;14.20;97.30;;;;;;4994829;28;20446;-84
2022/05/18 01:43:49;;;;;;;15.88;12.30;;;14.20;97.50;;;;;;5010421;28;20034;-84
2022/05/18 01:46:17;;;;;;;15.18;11.25;;;14.30;97.50;;;;;;5010571;28;20529;-84
2022/05/18 01:48:47;;;;;;;17.20;12.13;;;14.30;97.50;;;;;;4991193;28;20033;-84
2022/05/18 01:51:39;;;;;;;15.73;11.65;;;14.30;97.50;;;;;;5003851;28;20132;-84
2022/05/18 01:54:05;;;;;;;17.23;12.93;;;14.20;97.50;;;;;;4954756;28;1037613;-84
2022/05/18 01:56:31;;;;;;;18.25;14.30;;;14.30;97.60;;;;;;4988153;28;20856;-84
2022/05/18 01:58:56;;;;;;;20.38;14.32;;;14.20;97.60;;;;;;4987191;28;20026;-84
2022/05/18 02:01:22;;;;;;;21.58;15.30;;;14.30;97.80;;;;;;4985936;28;20084;-84
2022/05/18 02:03:48;;;;;;;24.02;14.27;;;14.40;97.80;;;;;;5003307;28;20493;-84
2022/05/18 02:06:14;;;;;;;23.08;15.70;;;14.30;97.80;;;;;;4984226;28;20027;-84
2022/05/18 02:08:42;;;;;;;23.35;16.00;;;14.30;97.80;;;;;;5000271;28;20030;-84
2022/05/18 02:11:17;;;;;;;25.33;16.83;;;14.30;97.80;;;;;;4986602;28;20072;-84
2022/05/18 02:13:43;;;;;;;30.02;17.70;;;14.40;97.90;;;;;;4990254;28;20027;-84
2022/05/18 02:16:10;;;;;;;23.88;16.85;;;14.40;97.90;;;;;;4984085;28;20041;-84
2022/05/18 02:18:36;;;;;;;26.15;17.55;;;14.40;97.90;;;;;;4989615;28;20030;-84
2022/05/18 02:21:03;;;;;;;23.70;17.65;;;14.40;98.00;;;;;;4987136;28;20177;-84
2022/05/18 02:23:29;;;;;;;27.58;17.83;;;14.40;98.00;;;;;;4986815;28;20026;-84
2022/05/18 02:25:54;;;;;;;25.88;16.73;;;14.50;98.00;;;;;;4985108;28;20046;-84
2022/05/18 02:28:20;;;;;;;26.60;17.77;;;14.40;97.90;;;;;;4982440;28;20061;-84
2022/05/18 02:30:46;;;;;;;25.02;17.27;;;14.40;97.90;;;;;;4985514;28;20034;-84
2022/05/18 02:33:11;;;;;;;26.65;17.70;;;14.40;98.00;;;;;;4986282;28;20065;-84
2022/05/18 02:35:40;;;;;;;24.33;17.42;;;14.30;97.90;;;;;;4988770;28;20168;-84
2022/05/18 02:38:06;;;;;;;25.42;16.73;;;14.40;98.00;;;;;;4985514;28;20441;-83
2022/05/18 02:40:32;;;;;;;24.75;16.50;;;14.30;97.90;;;;;;4987400;28;20121;-84
2022/05/18 02:42:57;;;;;;;28.48;17.67;;;14.30;98.00;;;;;;4987722;28;20172;-84
2022/05/18 02:45:23;;;;;;;24.35;16.73;;;14.40;98.10;;;;;;4985932;28;20069;-84
2022/05/18 02:47:50;;;;;;;24.98;17.67;;;14.40;98.00;;;;;;4986617;28;20516;-84
2022/05/18 02:50:16;;;;;;;26.60;17.48;;;14.40;98.10;;;;;;4987314;28;20516;-84
2022/05/18 02:52:41;;;;;;;24.98;17.17;;;14.40;98.10;;;;;;4988334;28;20101;-84
2022/05/18 02:57:52;;;;;;;26.98;18.38;;;14.30;98.10;;;;;;5008528;28;20080;-84
2022/05/18 03:00:18;;;;;;;29.10;18.15;;;14.40;98.20;;;;;;4990846;28;20093;-84
2022/05/18 03:02:44;;;;;;;28.17;18.17;;;14.50;98.10;;;;;;4990344;28;20394;-84
2022/05/18 03:05:09;;;;;;;26.50;18.50;;;14.50;98.10;;;;;;5008600;28;20029;-84
2022/05/18 03:07:35;;;;;;;27.60;19.10;;;14.50;98.10;;;;;;4990953;28;20111;-84
2022/05/18 03:10:00;;;;;;;24.98;18.20;;;14.50;98.10;;;;;;4995426;28;20029;-84
2022/05/18 03:12:26;;;;;;;29.00;18.30;;;14.50;98.10;;;;;;5009219;28;20523;-84
2022/05/18 03:14:51;;;;;;;25.33;17.92;;;14.50;98.10;;;;;;5006052;28;20022;-84
2022/05/18 03:17:17;;;;;;;24.52;18.23;;;14.50;98.00;;;;;;5007742;28;20797;-84
2022/05/18 03:19:42;;;;;;;25.83;18.52;;;14.50;98.00;;;;;;4994205;28;20037;-84
2022/05/18 03:24:52;;;;;;;24.75;18.25;;;14.60;98.00;;;;;;5005565;28;20073;-84
2022/05/18 03:27:17;;;;;;;26.25;18.10;;;14.60;98.00;;;;;;4993856;28;20389;-84
2022/05/18 03:29:43;;;;;;;28.88;18.00;;;14.60;97.90;;;;;;4986235;28;20489;-84
2022/05/18 03:32:09;;;;;;;24.40;17.77;;;14.60;98.00;;;;;;4990388;28;20049;-84
2022/05/18 03:34:34;;;;;;;21.52;16.75;;;14.60;97.90;;;;;;4990714;28;20026;-84
2022/05/18 03:37:00;;;;;;;29.15;17.45;;;14.60;97.90;;;;;;4995149;28;20028;-84
2022/05/18 03:39:26;;;;;;;25.27;17.50;;;14.60;97.90;;;;;;4992912;28;20485;-84
2022/05/18 03:41:52;;;;;;;25.27;17.23;;;14.60;97.90;;;;;;4991509;28;20034;-84
2022/05/18 03:44:19;;;;;;;25.27;18.05;;;14.60;97.90;;;;;;5009532;28;20030;-84
2022/05/18 03:46:44;;;;;;;25.42;18.15;;;14.60;97.90;;;;;;5002150;28;20544;-84
2022/05/18 03:49:10;;;;;;;24.63;17.05;;;14.60;97.90;;;;;;4993950;28;20030;-84
2022/05/18 03:51:37;;;;;;;23.45;17.70;;;14.60;97.90;;;;;;4993570;28;20026;-84
2022/05/18 03:54:04;;;;;;;25.83;18.02;;;14.60;97.80;;;;;;5006564;28;20417;-84
2022/05/18 03:56:29;;;;;;;23.08;17.40;;;14.60;97.90;;;;;;5021553;28;20033;-84
2022/05/18 03:58:55;;;;;;;26.23;18.17;;;14.60;97.80;;;;;;5013732;28;20030;-84
2022/05/18 04:01:21;;;;;;;23.60;18.42;;;14.70;97.80;;;;;;5001831;28;20026;-84
2022/05/18 04:03:47;;;;;;;25.02;18.40;;;14.70;97.80;;;;;;5011100;28;20026;-84
2022/05/18 04:06:14;;;;;;;26.38;18.77;;;14.70;97.80;;;;;;5011602;28;20048;-84
2022/05/18 04:08:40;;;;;;;24.38;18.15;;;14.70;97.80;;;;;;4994732;28;20034;-84
2022/05/18 04:11:06;;;;;;;24.17;19.15;;;14.80;97.70;;;;;;5000446;28;20056;-84
2022/05/18 04:13:32;;;;;;;23.73;18.73;;;14.80;97.70;;;;;;5009387;28;20031;-84
2022/05/18 04:15:58;;;;;;;25.13;18.50;;;14.80;97.70;;;;;;4995276;28;20033;-84
2022/05/18 04:18:24;;;;;;;26.40;18.65;;;14.80;97.70;;;;;;4995524;28;20036;-85
2022/05/18 04:20:52;;;;;;;28.05;17.58;;;14.90;97.60;;;;;;4995046;28;20025;-85
2022/05/18 04:23:20;;;;;;;24.55;18.42;;;14.90;97.60;;;;;;4996490;28;20034;-85
2022/05/18 04:25:46;;;;;;;24.02;18.33;;;15.00;97.60;;;;;;5002319;28;20486;-85
2022/05/18 04:28:15;;;;;;;22.95;17.60;;;15.00;97.50;;;;;;4994108;28;20030;-85
2022/05/18 04:30:43;;;;;;;27.05;18.15;;;15.00;97.50;;;;;;5008376;28;20030;-85
2022/05/18 04:33:13;;;;;;;21.35;16.42;;;15.00;97.50;;;;;;4992997;28;20033;-85
2022/05/18 04:35:40;;;;;;;21.75;17.23;;;15.00;97.40;;;;;;4994157;28;20108;-86
2022/05/18 04:38:05;;;;;;;22.27;17.23;;;15.00;97.30;;;;;;5012222;28;20547;-86
2022/05/18 04:40:31;;;;;;;23.30;17.13;;;15.10;97.30;;;;;;4999299;28;20057;-85
2022/05/18 04:42:56;;;;;;;20.02;16.70;;;15.10;97.20;;;;;;5000122;28;20022;-85
2022/05/18 04:45:23;;;;;;;23.45;16.05;;;15.20;97.20;;;;;;5009423;28;20026;-85
2022/05/18 04:47:49;;;;;;;19.90;16.33;;;15.20;97.10;;;;;;5006131;28;20045;-85
2022/05/18 04:50:15;;;;;;;21.27;15.43;;;15.30;97.10;;;;;;5007132;28;20026;-85
2022/05/18 04:52:41;;;;;;;23.60;15.95;;;15.30;97.00;;;;;;5007737;28;20034;-85
2022/05/18 04:55:07;;;;;;;20.17;15.27;;;15.30;96.90;;;;;;4992506;28;20206;-85
2022/05/18 04:57:33;;;;;;;23.00;14.98;;;15.40;96.80;;;;;;4992275;28;20018;-85
2022/05/18 04:59:58;;;;;;;19.73;14.38;;;15.40;96.80;;;;;;5006560;28;20026;-85
2022/05/18 05:02:24;;;;;;;17.67;14.55;;;15.40;96.70;;;;;;4990139;28;20037;-87
2022/05/18 05:04:50;;;;;;;16.50;13.57;;;15.50;96.60;;;;;;4995166;28;20077;-87
2022/05/18 05:07:15;;;;;;;19.80;15.20;;;15.50;96.50;;;;;;4993469;28;20030;-87
2022/05/18 05:09:41;;;;;;;18.48;14.98;;;15.60;96.40;;;;;;5018890;28;20367;-87
2022/05/18 05:12:08;;;;;;;16.80;13.75;;;15.60;96.30;;;;;;4991986;28;20051;-87
2022/05/18 05:14:38;;;;;;;19.13;14.73;;;15.60;96.20;;;;;;5005794;28;20038;-87
2022/05/18 05:17:03;;;;;;;16.08;13.57;;;15.70;96.20;;;;;;4992313;28;20026;-87
2022/05/18 05:19:29;;;;;;;17.48;13.55;;;15.60;96.10;;;;;;5010669;28;20034;-87
2022/05/18 05:21:55;;;;;;;19.05;13.93;;;15.70;96.00;;;;;;4991571;28;20033;-86
2022/05/18 05:24:20;;;;;;;18.98;14.10;;;15.70;95.90;;;;;;4991009;28;20412;-86
2022/05/18 05:26:46;;;;;;;16.45;13.38;;;15.70;95.80;;;;;;4996937;28;20069;-86
2022/05/18 05:29:12;;;;;;;19.52;13.88;;;15.70;95.80;;;;;;5003393;28;20098;-87
2022/05/18 05:31:40;;;;;;;18.58;13.05;;;15.70;95.60;;;;;;5007499;28;20030;-87
2022/05/18 05:34:06;;;;;;;16.30;13.55;;;15.70;95.60;;;;;;4995488;28;20477;-87
2022/05/18 05:36:32;;;;;;;17.30;12.95;;;15.80;95.60;;;;;;5009952;28;20033;-87
2022/05/18 05:38:57;;;;;;;16.20;13.15;;;15.80;95.50;;;;;;5004333;28;20026;-86
2022/05/18 05:41:26;;;;;;;16.67;12.85;;;15.80;95.40;;;;;;5005113;28;20950;-87
2022/05/18 05:43:56;;;;;;;16.58;13.82;;;15.90;95.40;;;;;;4999366;28;20289;-87
2022/05/18 05:46:22;;;;;;;15.65;13.05;;;15.80;95.30;;;;;;4992384;28;20033;-87
2022/05/18 05:48:47;;;;;;;17.63;12.93;;;16.00;95.30;;;;;;4986907;28;20030;-87
2022/05/18 05:51:15;;;;;;;16.85;12.73;;;16.00;95.20;;;;;;5004621;28;20115;-87
2022/05/18 05:53:42;;;;;;;17.75;12.38;;;16.00;95.10;;;;;;4987294;28;20041;-87
2022/05/18 05:56:08;;;;;;;14.65;12.15;;;16.00;95.00;;;;;;4989878;28;20061;-86
2022/05/18 05:58:36;;;;;;;16.10;12.15;;;16.10;94.80;;;;;;4988251;28;20026;-87
2022/05/18 06:01:03;;;;;;;14.13;10.77;;;16.10;94.80;;;;;;4992777;28;20037;-87
2022/05/18 06:03:28;;;;;;;16.13;11.35;;;16.20;94.70;;;;;;4992600;28;20028;-87
2022/05/18 06:05:56;;;;;;;14.70;11.52;;;16.20;94.40;;;;;;5006461;28;20329;-87
2022/05/18 06:08:22;;;;;;;14.82;11.35;;;16.10;94.10;;;;;;4993138;28;20096;-87
2022/05/18 06:10:47;;;;;;;13.73;11.25;;;16.20;94.20;;;;;;4991134;28;20473;-87
2022/05/18 06:13:13;;;;;;;13.30;11.27;;;16.30;94.00;;;;;;5005667;28;20026;-87
2022/05/18 06:15:39;;;;;;;14.02;10.40;;;16.40;94.10;;;;;;4992355;28;20430;-87
2022/05/18 06:18:05;;;;;;;14.85;10.52;;;16.40;93.90;;;;;;4993427;28;20470;-88
2022/05/18 06:20:31;;;;;;;14.55;11.10;;;16.50;93.60;;;;;;4993031;28;20060;-86
2022/05/18 06:23:04;;;;;;;13.77;10.15;;;16.50;93.30;;;;;;4990812;28;20081;-88
2022/05/18 06:25:30;;;;;;;13.85;10.82;;;16.60;93.20;;;;;;5002871;28;20438;-87
2022/05/18 06:27:56;;;;;;;12.48;9.93;;;16.70;93.10;;;;;;5000386;28;20060;-87
2022/05/18 06:30:22;;;;;;;15.27;10.85;;;16.80;92.80;;;;;;4994498;28;20133;-86
2022/05/18 06:32:47;;;;;;;13.77;10.57;;;16.70;92.50;;;;;;4999828;28;20034;-87
2022/05/18 06:35:13;;;;;;;12.32;10.15;;;16.70;92.40;;;;;;5016838;28;20021;-87
2022/05/18 06:37:39;;;;;;;12.45;10.23;;;16.70;92.40;;;;;;4992986;28;20029;-86
2022/05/18 06:40:06;;;;;;;16.38;9.98;;;16.70;92.50;;;;;;4995341;28;20022;-86
2022/05/18 06:42:32;;;;;;;13.00;10.13;;;16.70;92.50;;;;;;5005414;28;20022;-86
2022/05/18 06:44:59;;;;;;;15.18;10.25;;;17.00;92.70;;;;;;4991930;28;20431;-86
2022/05/18 06:47:24;;;;;;;11.23;9.60;;;17.10;92.30;;;;;;4989038;28;20095;-86
2022/05/18 06:49:50;;;;;;;12.85;9.48;;;17.40;91.80;;;;;;4992344;28;20026;-86
2022/05/18 06:52:16;;;;;;;11.07;8.93;;;17.60;90.30;;;;;;5010831;28;20469;-86
2022/05/18 06:54:41;;;;;;;11.68;9.90;;;17.80;89.70;;;;;;4993158;28;20045;-85
2022/05/18 06:57:07;;;;;;;11.68;9.50;;;18.00;89.30;;;;;;5008538;28;20034;-86
2022/05/18 06:59:32;;;;;;;10.63;8.63;;;18.30;89.10;;;;;;5010825;28;20396;-86
2022/05/18 07:01:58;;;;;;;13.40;8.63;;;18.50;87.90;;;;;;5003008;28;20036;-86
2022/05/18 07:04:24;;;;;;;10.25;7.70;;;18.70;87.50;;;;;;4990503;28;20105;-86
2022/05/18 07:06:50;;;;;;;11.02;7.65;;;18.80;85.90;;;;;;4993318;28;20080;-86
2022/05/18 07:09:18;;;;;;;10.77;7.93;;;18.80;86.30;;;;;;4991502;28;20496;-85
2022/05/18 07:11:46;;;;;;;11.30;8.52;;;18.70;86.20;;;;;;4988691;28;20493;-86
2022/05/18 07:14:13;;;;;;;10.77;8.30;;;18.70;86.10;;;;;;4990694;28;20493;-87
2022/05/18 07:16:40;;;;;;;10.32;8.50;;;19.00;86.40;;;;;;5002389;28;20031;-87
2022/05/18 07:19:06;;;;;;;10.32;7.72;;;19.10;85.10;;;;;;5009849;28;20121;-85
2022/05/18 07:21:32;;;;;;;10.25;7.90;;;19.40;85.30;;;;;;4993523;28;20041;-86
2022/05/18 07:23:57;;;;;;;9.50;7.80;;;19.40;84.60;;;;;;5011680;28;20030;-87
2022/05/18 07:26:24;;;;;;;11.68;8.40;;;19.70;84.50;;;;;;4998285;28;20088;-88
2022/05/18 07:28:53;;;;;;;10.52;7.88;;;19.80;83.80;;;;;;5005039;28;20057;-88
2022/05/18 07:31:22;;;;;;;11.55;7.95;;;20.10;83.50;;;;;;4990274;28;20045;-87
2022/05/18 07:33:48;;;;;;;11.77;7.32;;;20.10;82.20;;;;;;5007943;28;20034;-87
2022/05/18 07:36:18;;;;;;;11.55;6.88;;;20.10;80.80;;;;;;5001448;28;20026;-88
2022/05/18 07:38:44;;;;;;;10.52;7.20;;;20.40;81.80;;;;;;5009932;28;20054;-89
2022/05/18 07:41:12;;;;;;;10.65;6.82;;;20.70;81.80;;;;;;4997575;28;20034;-88
2022/05/18 07:43:38;;;;;;;12.10;7.15;;;20.70;80.20;;;;;;4994790;28;20120;-88
2022/05/18 07:46:06;;;;;;;8.73;6.40;;;20.90;79.20;;;;;;5000710;28;20037;-88
2022/05/18 07:48:32;;;;;;;8.23;6.53;;;21.30;80.60;;;;;;4994619;28;20030;-88
2022/05/18 07:50:58;;;;;;;9.30;6.90;;;21.20;78.20;;;;;;5003036;28;20125;-88
2022/05/18 07:53:26;;;;;;;7.78;6.13;;;21.20;77.50;;;;;;4994140;28;20084;-88
2022/05/18 07:55:52;;;;;;;8.60;6.20;;;21.00;78.00;;;;;;4995694;28;20121;-88
2022/05/18 07:58:20;;;;;;;9.07;7.15;;;20.70;78.50;;;;;;5002397;28;20144;-88
2022/05/18 08:00:46;;;;;;;9.05;6.03;;;20.80;79.40;;;;;;4987659;28;20048;-88
2022/05/18 08:03:15;;;;;;;8.98;6.75;;;21.00;79.70;;;;;;5007170;28;20037;-87
2022/05/18 08:05:44;;;;;;;11.85;6.05;;;21.20;79.60;;;;;;5009465;28;20084;-88
2022/05/18 08:08:13;;;;;;;9.13;5.70;;;21.70;77.80;;;;;;4991214;28;20172;-88
2022/05/18 08:16:09;;;;;;;8.55;5.88;;;22.10;74.40;;;;;;5010455;28;20037;-88
2022/05/18 08:18:35;;;;;;;8.20;5.45;;;21.80;74.80;;;;;;4995472;28;20026;-88
2022/05/18 08:21:01;;;;;;;6.82;5.25;;;22.20;74.60;;;;;;4990839;28;20056;-89
2022/05/18 08:23:27;;;;;;;9.27;5.88;;;22.10;75.10;;;;;;4994294;28;20032;-90
2022/05/18 08:25:57;;;;;;;8.88;5.45;;;22.20;74.10;;;;;;4993047;28;20032;-89
2022/05/18 08:28:24;;;;;;;6.57;4.90;;;22.50;72.90;;;;;;4992021;28;20096;-89
2022/05/18 08:30:50;;;;;;;7.60;4.43;;;22.70;71.00;;;;;;4995417;28;20040;-90
2022/05/18 08:33:15;;;;;;;7.50;4.28;;;22.90;71.50;;;;;;4988689;28;20030;-90
2022/05/18 08:35:45;;;;;;;6.10;4.20;;;23.20;69.70;;;;;;5006240;28;20027;-90
2022/05/18 08:38:14;;;;;;;6.20;4.40;;;22.90;69.20;;;;;;5005930;28;20017;-89
2022/05/18 08:40:51;;;;;;;6.40;3.65;;;22.80;68.70;;;;;;4995089;28;20026;-89
2022/05/18 08:43:25;;;;;;;5.70;3.58;;;23.20;68.90;;;;;;4995412;28;20109;-89
2022/05/18 08:46:04;;;;;;;9.80;4.05;;;22.90;68.10;;;;;;4994179;28;20026;-89
2022/05/18 08:48:35;;;;;;;10.35;4.20;;;23.40;67.40;;;;;;5024122;28;20038;-89
2022/05/18 08:51:09;;;;;;;5.20;3.63;;;23.60;69.60;;;;;;5007279;28;20068;-89
2022/05/18 08:54:01;;;;;;;5.90;3.70;;;24.00;69.10;;;;;;4989036;28;20050;-90
2022/05/18 08:56:33;;;;;;;6.68;3.40;;;24.30;64.90;;;;;;5020569;28;20036;-89
2022/05/18 08:59:02;;;;;;;10.70;3.42;;;24.00;64.80;;;;;;5005647;28;20021;-88
2022/05/18 09:01:40;;;;;;;6.32;3.38;;;24.30;64.40;;;;;;5008853;28;20092;-88
2022/05/18 09:04:10;;;;;;;5.32;3.10;;;23.90;65.30;;;;;;5010791;28;20385;-88
2022/05/18 09:06:47;;;;;;;6.53;4.05;;;23.90;64.90;;;;;;5003038;28;20112;-87
2022/05/18 09:12:18;;;;;;;5.13;3.08;;;24.50;62.60;;;;;;5008072;28;20515;-88
2022/05/18 09:14:45;;;;;;;6.13;3.40;;;24.70;62.70;;;;;;5006127;28;20112;-88
2022/05/18 09:17:31;;;;;;;6.47;3.55;;;24.70;62.90;;;;;;4995847;28;20492;-89
2022/05/18 09:20:25;;;;;;;4.85;2.92;;;24.00;61.70;;;;;;5006331;28;20405;-89
2022/05/18 09:23:06;;;;;;;5.65;3.28;;;24.70;62.80;;;;;;4992809;28;20545;-89
2022/05/18 09:25:41;;;;;;;5.22;3.60;;;24.30;62.80;;;;;;5013078;28;20039;-89
2022/05/18 09:28:31;;;;;;;6.18;3.20;;;24.50;61.70;;;;;;4995558;28;20468;-89
2022/05/18 09:31:02;;;;;;;4.82;3.00;;;24.90;61.10;;;;;;5016545;28;20034;-88
2022/05/18 09:33:31;;;;;;;4.55;2.78;;;24.80;60.90;;;;;;5003137;28;20022;-88
2022/05/18 09:36:17;;;;;;;5.38;2.80;;;25.20;59.40;;;;;;4993655;28;20028;-88
2022/05/18 09:39:08;;;;;;;6.18;3.45;;;25.00;61.10;;;;;;5018944;28;20014;-88
2022/05/18 09:41:39;;;;;;;5.53;3.03;;;25.30;60.40;;;;;;5007055;28;20121;-88
2022/05/18 09:44:59;;;;;;;5.57;3.45;;;24.80;60.90;;;;;;4992848;28;20068;-88
2022/05/18 09:47:27;;;;;;;3.95;2.95;;;24.80;60.00;;;;;;4977699;28;20034;-88
2022/05/18 09:49:56;;;;;;;4.88;3.00;;;24.90;60.00;;;;;;4995019;28;20376;-88
2022/05/18 09:52:28;;;;;;;5.13;2.85;;;25.40;57.40;;;;;;5010952;28;20036;-88
2022/05/18 09:54:56;;;;;;;6.90;3.00;;;25.70;58.00;;;;;;4993034;28;20124;-88
2022/05/18 09:57:44;;;;;;;4.85;2.60;;;25.60;58.10;;;;;;5012115;28;20037;-89
2022/05/18 10:00:26;;;;;;;6.45;3.30;;;25.50;57.50;;;;;;5010890;28;20018;-88
2022/05/18 10:08:33;;;;;;;4.63;2.58;;;25.80;56.50;;;;;;5009562;28;20052;-88
2022/05/18 10:11:06;;;;;;;3.83;2.40;;;25.90;59.00;;;;;;5009025;28;20029;-89
2022/05/18 10:13:40;;;;;;;5.40;2.58;;;26.30;59.50;;;;;;5012181;28;20022;-89
2022/05/18 10:16:21;;;;;;;5.60;2.55;;;26.10;57.50;;;;;;4995027;28;20397;-88
2022/05/18 10:18:53;;;;;;;5.60;3.03;;;25.90;56.40;;;;;;5009903;28;20026;-89
2022/05/18 10:21:26;;;;;;;5.68;3.40;;;26.10;58.10;;;;;;4994146;28;20026;-88
2022/05/18 10:23:56;;;;;;;6.10;3.25;;;26.00;56.60;;;;;;4990218;28;20034;-88
2022/05/18 10:26:30;;;;;;;4.80;2.70;;;26.30;55.70;;;;;;4996980;28;20527;-89
2022/05/18 10:29:06;;;;;;;4.55;3.42;;;26.50;56.80;;;;;;5010876;28;20034;-89
2022/05/18 10:31:38;;;;;;;5.60;2.80;;;26.50;56.30;;;;;;5011724;28;20563;-89
2022/05/18 10:34:11;;;;;;;7.55;3.03;;;26.50;56.80;;;;;;4994788;28;20117;-89
2022/05/18 10:36:46;;;;;;;5.43;3.17;;;27.00;56.80;;;;;;5007853;28;20409;-89
2022/05/18 10:39:47;;;;;;;7.50;3.10;;;26.60;54.80;;;;;;4991630;28;20476;-89
2022/05/18 10:42:19;;;;;;;8.48;3.45;;;27.10;55.00;;;;;;4982903;28;20133;-88
2022/05/18 10:44:45;;;;;;;4.78;2.78;;;27.20;55.30;;;;;;5010935;28;20363;-89
2022/05/18 10:47:18;;;;;;;6.15;2.60;;;27.20;54.00;;;;;;5001811;28;20380;-89
2022/05/18 10:49:45;;;;;;;6.00;2.70;;;26.80;54.70;;;;;;4986328;28;20072;-88
2022/05/18 10:52:18;;;;;;;5.50;2.40;;;26.70;54.60;;;;;;4995727;28;20037;-89
2022/05/18 10:55:10;;;;;;;3.65;2.40;;;26.90;55.00;;;;;;4998295;28;20046;-88
2022/05/18 10:57:40;;;;;;;3.85;2.55;;;27.60;54.40;;;;;;4994095;28;20536;-88
2022/05/18 11:00:11;;;;;;;4.60;2.70;;;27.50;55.70;;;;;;4995205;28;20412;-87
2022/05/18 11:02:50;;;;;;;3.25;2.00;;;27.70;55.70;;;;;;5000994;28;20061;-87
2022/05/18 11:05:42;;;;;;;5.03;2.30;;;27.70;54.70;;;;;;5016473;28;20041;-86
2022/05/18 11:08:16;;;;;;;5.18;2.30;;;28.10;51.80;;;;;;4997709;28;20042;-87
2022/05/18 11:10:50;;;;;;;3.08;1.70;;;28.30;51.40;;;;;;4996920;28;20026;-86
2022/05/18 11:13:37;;;;;;;5.63;1.80;;;28.50;51.00;;;;;;5026807;28;20378;-87
2022/05/18 11:16:19;;;;;;;3.67;2.00;;;28.50;49.40;;;;;;5010709;28;20022;-87
2022/05/18 11:18:56;;;;;;;5.35;2.30;;;28.50;51.80;;;;;;5001079;28;20734;-87
2022/05/18 11:21:32;;;;;;;4.15;2.10;;;28.90;50.30;;;;;;5009880;28;20030;-87
2022/05/18 11:24:06;;;;;;;6.10;2.00;;;28.90;48.30;;;;;;4996395;28;20444;-86
2022/05/18 11:26:31;;;;;;;3.78;2.10;;;28.50;49.30;;;;;;5025957;28;20061;-87
2022/05/18 11:29:20;;;;;;;5.90;1.95;;;28.40;49.20;;;;;;5012048;28;20026;-87
2022/05/18 11:32:21;;;;;;;4.03;1.80;;;28.50;49.50;;;;;;4997870;28;20034;-87
2022/05/18 11:35:18;;;;;;;4.03;1.98;;;28.60;49.40;;;;;;5014309;28;20025;-86
2022/05/18 11:38:15;;;;;;;3.10;1.80;;;28.70;50.50;;;;;;4995516;28;20026;-87
2022/05/18 11:41:07;;;;;;;3.65;1.80;;;29.00;46.80;;;;;;5018930;28;20125;-87
2022/05/18 11:43:49;;;;;;;3.67;1.60;;;29.20;48.80;;;;;;4981556;28;20026;-86
2022/05/18 11:46:33;;;;;;;4.13;2.05;;;29.80;48.60;;;;;;4996925;28;20088;-87
2022/05/18 11:49:17;;;;;;;4.82;1.98;;;29.90;45.70;;;;;;4997890;28;20037;-87
2022/05/18 11:52:14;;;;;;;4.20;1.92;;;30.40;47.60;;;;;;5012908;28;20033;-86
2022/05/18 11:54:48;;;;;;;6.40;2.20;;;30.40;44.90;;;;;;5011241;28;20661;-86
2022/05/18 11:57:42;;;;;;;4.22;1.92;;;30.30;45.10;;;;;;5006865;28;20113;-89
2022/05/18 12:03:36;;;;;;;3.90;1.70;;;30.20;46.00;;;;;;5006197;28;20038;-87
2022/05/18 12:06:12;;;;;;;5.20;1.80;;;30.50;45.40;;;;;;5007236;28;20288;-87
2022/05/18 12:09:05;;;;;;;3.63;1.70;;;30.20;46.90;;;;;;4993338;28;20029;-87
2022/05/18 12:11:43;;;;;;;4.57;2.10;;;30.50;44.80;;;;;;4990357;28;20061;-86
2022/05/18 12:14:40;;;;;;;3.80;1.80;;;30.40;44.20;;;;;;5003456;28;21208;-87
2022/05/18 12:17:09;;;;;;;4.40;1.80;;;30.30;44.50;;;;;;5002956;28;20037;-87
2022/05/18 12:19:37;;;;;;;4.72;1.70;;;30.10;44.30;;;;;;5011277;28;20073;-87
2022/05/18 12:22:11;;;;;;;3.53;1.70;;;31.00;44.60;;;;;;5006345;28;20053;-88
2022/05/18 12:24:41;;;;;;;2.95;1.75;;;31.60;42.90;;;;;;5010166;28;20057;-87
2022/05/18 12:27:09;;;;;;;2.55;1.50;;;31.70;42.60;;;;;;4991167;28;20492;-88
2022/05/18 12:29:36;;;;;;;4.32;1.80;;;31.50;41.10;;;;;;4993068;28;20027;-87
2022/05/18 12:32:04;;;;;;;4.65;1.70;;;32.00;40.50;;;;;;5007437;28;20547;-87
2022/05/18 12:34:39;;;;;;;3.83;2.22;;;31.90;41.00;;;;;;4994444;28;20026;-87
2022/05/18 12:37:14;;;;;;;3.08;1.50;;;30.60;43.40;;;;;;4997581;28;20052;-87
2022/05/18 12:39:49;;;;;;;4.88;1.70;;;30.90;43.20;;;;;;5008202;28;20068;-87
2022/05/18 12:42:28;;;;;;;3.15;1.90;;;31.20;42.80;;;;;;5004405;28;20448;-86
2022/05/18 12:44:56;;;;;;;2.90;1.60;;;31.30;40.60;;;;;;5010127;28;20033;-89
2022/05/18 12:47:28;;;;;;;4.38;1.92;;;31.40;42.00;;;;;;4989532;28;20104;-89
2022/05/18 12:50:07;;;;;;;3.67;2.00;;;31.60;41.00;;;;;;4994179;28;20088;-88
2022/05/18 12:52:53;;;;;;;5.22;1.77;;;32.30;42.30;;;;;;4992962;28;20041;-89
2022/05/18 12:55:31;;;;;;;3.85;1.75;;;31.50;40.90;;;;;;4993227;28;20113;-89
2022/05/18 12:58:09;;;;;;;3.15;1.60;;;31.00;41.30;;;;;;5011235;28;20053;-89
2022/05/18 13:00:45;;;;;;;2.85;1.45;;;32.10;42.50;;;;;;5009122;28;20125;-89
2022/05/18 13:03:11;;;;;;;4.95;1.60;;;31.10;41.80;;;;;;5007617;28;20065;-88
2022/05/18 13:05:47;;;;;;;3.25;1.45;;;30.00;41.80;;;;;;5001907;28;20449;-88
2022/05/18 13:08:16;;;;;;;4.70;1.48;;;29.20;41.80;;;;;;4993408;28;20028;-88
2022/05/18 13:11:16;;;;;;;3.88;1.40;;;29.30;42.60;;;;;;5007210;28;20512;-88
2022/05/18 13:14:00;;;;;;;2.57;1.47;;;30.00;43.70;;;;;;5008615;28;20026;-88
2022/05/18 13:16:38;;;;;;;3.50;1.23;;;31.50;38.70;;;;;;5010749;28;20292;-88